sensor_id;sensor_type;location;lat;lon;timestamp;pressure;altitude;pressure_sealevel;temperature
18704;BMP180;9481;48.796;9.210;2023-01-19T00:00:17;95435.00;;;7.90
18704;BMP180;9481;48.796;9.210;2023-01-19T00:02:43;95427.00;;;7.90
18704;BMP180;9481;48.796;9.210;2023-01-19T00:05:13;95437.00;;;7.90
18704;BMP180;9481;48.796;9.210;2023-01-19T00:07:39;95450.00;;;7.80
18704;BMP180;9481;48.796;9.210;2023-01-19T00:10:05;95447.00;;;7.80
18704;BMP180;9481;48.796;9.210;2023-01-19T00:12:31;95447.00;;;7.80
18704;BMP180;9481;48.796;9.210;2023-01-19T00:14:57;95426.00;;;7.80
18704;BMP180;9481;48.796;9.210;2023-01-19T00:17:23;95432.00;;;7.80
18704;BMP180;9481;48.796;9.210;2023-01-19T00:19:48;95435.00;;;7.80
18704;BMP180;9481;48.796;9.210;2023-01-19T00:22:14;95433.00;;;7.70
18704;BMP180;9481;48.796;9.210;2023-01-19T00:24:40;95442.00;;;7.70
18704;BMP180;9481;48.796;9.210;2023-01-19T00:27:05;95431.00;;;7.70
18704;BMP180;9481;48.796;9.210;2023-01-19T00:29:31;95439.00;;;7.70
18704;BMP180;9481;48.796;9.210;2023-01-19T00:32:00;95439.00;;;7.70
18704;BMP180;9481;48.796;9.210;2023-01-19T00:34:25;95438.00;;;7.70
18704;BMP180;9481;48.796;9.210;2023-01-19T00:36:51;95451.00;;;7.70
18704;BMP180;9481;48.796;9.210;2023-01-19T00:39:17;95451.00;;;7.70
18704;BMP180;9481;48.796;9.210;2023-01-19T00:41:42;95439.00;;;7.70
18704;BMP180;9481;48.796;9.210;2023-01-19T00:44:26;95453.00;;;7.60
18704;BMP180;9481;48.796;9.210;2023-01-19T00:46:52;95459.00;;;7.60
18704;BMP180;9481;48.796;9.210;2023-01-19T00:49:18;95453.00;;;7.60
18704;BMP180;9481;48.796;9.210;2023-01-19T00:51:43;95434.00;;;7.60
18704;BMP180;9481;48.796;9.210;2023-01-19T00:54:09;95459.00;;;7.60
18704;BMP180;9481;48.796;9.210;2023-01-19T00:56:36;95458.00;;;7.60
18704;BMP180;9481;48.796;9.210;2023-01-19T00:59:02;95459.00;;;7.50
18704;BMP180;9481;48.796;9.210;2023-01-19T01:01:27;95453.00;;;7.50
18704;BMP180;9481;48.796;9.210;2023-01-19T01:03:53;95464.00;;;7.50
18704;BMP180;9481;48.796;9.210;2023-01-19T01:06:20;95440.00;;;7.50
18704;BMP180;9481;48.796;9.210;2023-01-19T01:08:46;95463.00;;;7.50
18704;BMP180;9481;48.796;9.210;2023-01-19T01:11:12;95446.00;;;7.50
18704;BMP180;9481;48.796;9.210;2023-01-19T01:13:38;95469.00;;;7.40
18704;BMP180;9481;48.796;9.210;2023-01-19T01:16:04;95450.00;;;7.40
18704;BMP180;9481;48.796;9.210;2023-01-19T01:18:30;95468.00;;;7.40
18704;BMP180;9481;48.796;9.210;2023-01-19T01:21:04;95463.00;;;7.40
18704;BMP180;9481;48.796;9.210;2023-01-19T01:23:30;95463.00;;;7.40
18704;BMP180;9481;48.796;9.210;2023-01-19T01:25:56;95462.00;;;7.40
18704;BMP180;9481;48.796;9.210;2023-01-19T01:28:21;95462.00;;;7.40
18704;BMP180;9481;48.796;9.210;2023-01-19T01:30:52;95465.00;;;7.40
18704;BMP180;9481;48.796;9.210;2023-01-19T01:33:17;95466.00;;;7.40
18704;BMP180;9481;48.796;9.210;2023-01-19T01:35:44;95470.00;;;7.30
18704;BMP180;9481;48.796;9.210;2023-01-19T01:38:09;95454.00;;;7.30
18704;BMP180;9481;48.796;9.210;2023-01-19T01:40:39;95465.00;;;7.30
18704;BMP180;9481;48.796;9.210;2023-01-19T01:43:14;95450.00;;;7.30
18704;BMP180;9481;48.796;9.210;2023-01-19T01:45:41;95468.00;;;7.30
18704;BMP180;9481;48.796;9.210;2023-01-19T01:48:25;95479.00;;;7.20
18704;BMP180;9481;48.796;9.210;2023-01-19T01:51:08;95459.00;;;7.20
18704;BMP180;9481;48.796;9.210;2023-01-19T01:54:02;95473.00;;;7.20
18704;BMP180;9481;48.796;9.210;2023-01-19T01:57:02;95475.00;;;7.20
18704;BMP180;9481;48.796;9.210;2023-01-19T01:59:36;95477.00;;;7.20
18704;BMP180;9481;48.796;9.210;2023-01-19T02:02:10;95467.00;;;7.10
18704;BMP180;9481;48.796;9.210;2023-01-19T02:05:01;95476.00;;;7.10
18704;BMP180;9481;48.796;9.210;2023-01-19T02:08:16;95479.00;;;7.10
18704;BMP180;9481;48.796;9.210;2023-01-19T02:11:03;95481.00;;;7.10
18704;BMP180;9481;48.796;9.210;2023-01-19T02:13:48;95467.00;;;7.10
18704;BMP180;9481;48.796;9.210;2023-01-19T02:16:15;95473.00;;;7.10
18704;BMP180;9481;48.796;9.210;2023-01-19T02:18:42;95454.00;;;7.10
18704;BMP180;9481;48.796;9.210;2023-01-19T02:21:23;95454.00;;;7.10
18704;BMP180;9481;48.796;9.210;2023-01-19T02:23:55;95452.00;;;7.10
18704;BMP180;9481;48.796;9.210;2023-01-19T02:26:29;95459.00;;;7.10
18704;BMP180;9481;48.796;9.210;2023-01-19T02:29:02;95465.00;;;7.10
18704;BMP180;9481;48.796;9.210;2023-01-19T02:31:30;95448.00;;;7.00
18704;BMP180;9481;48.796;9.210;2023-01-19T02:33:58;95448.00;;;7.10
18704;BMP180;9481;48.796;9.210;2023-01-19T02:36:51;95450.00;;;7.10
18704;BMP180;9481;48.796;9.210;2023-01-19T02:39:37;95465.00;;;7.10
18704;BMP180;9481;48.796;9.210;2023-01-19T02:42:09;95465.00;;;7.10
18704;BMP180;9481;48.796;9.210;2023-01-19T02:44:38;95472.00;;;7.00
18704;BMP180;9481;48.796;9.210;2023-01-19T02:47:06;95470.00;;;7.00
18704;BMP180;9481;48.796;9.210;2023-01-19T02:49:31;95467.00;;;7.00
18704;BMP180;9481;48.796;9.210;2023-01-19T02:51:58;95475.00;;;7.00
18704;BMP180;9481;48.796;9.210;2023-01-19T02:55:14;95482.00;;;6.90
18704;BMP180;9481;48.796;9.210;2023-01-19T02:58:00;95470.00;;;6.90
18704;BMP180;9481;48.796;9.210;2023-01-19T03:01:10;95487.00;;;6.90
18704;BMP180;9481;48.796;9.210;2023-01-19T03:04:13;95467.00;;;6.90
18704;BMP180;9481;48.796;9.210;2023-01-19T03:06:55;95485.00;;;6.80
18704;BMP180;9481;48.796;9.210;2023-01-19T03:09:47;95480.00;;;6.80
18704;BMP180;9481;48.796;9.210;2023-01-19T03:12:41;95475.00;;;6.80
18704;BMP180;9481;48.796;9.210;2023-01-19T03:15:54;95479.00;;;6.80
18704;BMP180;9481;48.796;9.210;2023-01-19T03:18:24;95459.00;;;6.70
18704;BMP180;9481;48.796;9.210;2023-01-19T03:20:54;95453.00;;;6.70
18704;BMP180;9481;48.796;9.210;2023-01-19T03:23:27;95473.00;;;6.70
18704;BMP180;9481;48.796;9.210;2023-01-19T03:25:56;95485.00;;;6.70
18704;BMP180;9481;48.796;9.210;2023-01-19T03:28:25;95478.00;;;6.70
18704;BMP180;9481;48.796;9.210;2023-01-19T03:31:04;95490.00;;;6.70
18704;BMP180;9481;48.796;9.210;2023-01-19T03:33:35;95477.00;;;6.70
18704;BMP180;9481;48.796;9.210;2023-01-19T03:36:12;95490.00;;;6.70
18704;BMP180;9481;48.796;9.210;2023-01-19T03:38:41;95490.00;;;6.70
18704;BMP180;9481;48.796;9.210;2023-01-19T03:41:13;95495.00;;;6.70
18704;BMP180;9481;48.796;9.210;2023-01-19T03:43:42;95479.00;;;6.70
18704;BMP180;9481;48.796;9.210;2023-01-19T03:46:10;95482.00;;;6.70
18704;BMP180;9481;48.796;9.210;2023-01-19T03:48:37;95491.00;;;6.70
18704;BMP180;9481;48.796;9.210;2023-01-19T03:51:06;95481.00;;;6.70
18704;BMP180;9481;48.796;9.210;2023-01-19T03:53:33;95489.00;;;6.70
18704;BMP180;9481;48.796;9.210;2023-01-19T03:55:59;95492.00;;;6.70
18704;BMP180;9481;48.796;9.210;2023-01-19T03:58:24;95493.00;;;6.70
18704;BMP180;9481;48.796;9.210;2023-01-19T04:00:50;95483.00;;;6.70
18704;BMP180;9481;48.796;9.210;2023-01-19T04:03:17;95483.00;;;6.70
18704;BMP180;9481;48.796;9.210;2023-01-19T04:05:43;95497.00;;;6.70
18704;BMP180;9481;48.796;9.210;2023-01-19T04:08:10;95503.00;;;6.70
18704;BMP180;9481;48.796;9.210;2023-01-19T04:10:36;95511.00;;;6.70
18704;BMP180;9481;48.796;9.210;2023-01-19T04:13:04;95501.00;;;6.70
18704;BMP180;9481;48.796;9.210;2023-01-19T04:15:31;95493.00;;;6.70
18704;BMP180;9481;48.796;9.210;2023-01-19T04:17:58;95510.00;;;6.70
18704;BMP180;9481;48.796;9.210;2023-01-19T04:20:24;95491.00;;;6.70
18704;BMP180;9481;48.796;9.210;2023-01-19T04:22:51;95498.00;;;6.70
18704;BMP180;9481;48.796;9.210;2023-01-19T04:25:17;95495.00;;;6.70
18704;BMP180;9481;48.796;9.210;2023-01-19T04:27:42;95506.00;;;6.70
18704;BMP180;9481;48.796;9.210;2023-01-19T04:30:09;95502.00;;;6.70
18704;BMP180;9481;48.796;9.210;2023-01-19T04:32:35;95494.00;;;6.70
18704;BMP180;9481;48.796;9.210;2023-01-19T04:35:01;95512.00;;;6.70
18704;BMP180;9481;48.796;9.210;2023-01-19T04:37:27;95512.00;;;6.70
18704;BMP180;9481;48.796;9.210;2023-01-19T04:39:52;95521.00;;;6.70
18704;BMP180;9481;48.796;9.210;2023-01-19T04:42:18;95502.00;;;6.70
18704;BMP180;9481;48.796;9.210;2023-01-19T04:44:44;95494.00;;;6.70
18704;BMP180;9481;48.796;9.210;2023-01-19T04:47:09;95495.00;;;6.70
18704;BMP180;9481;48.796;9.210;2023-01-19T04:49:35;95505.00;;;6.60
18704;BMP180;9481;48.796;9.210;2023-01-19T04:52:05;95511.00;;;6.60
18704;BMP180;9481;48.796;9.210;2023-01-19T04:54:31;95526.00;;;6.60
18704;BMP180;9481;48.796;9.210;2023-01-19T04:56:57;95515.00;;;6.60
18704;BMP180;9481;48.796;9.210;2023-01-19T04:59:23;95517.00;;;6.60
18704;BMP180;9481;48.796;9.210;2023-01-19T05:01:48;95502.00;;;6.60
18704;BMP180;9481;48.796;9.210;2023-01-19T05:04:14;95508.00;;;6.60
18704;BMP180;9481;48.796;9.210;2023-01-19T05:06:40;95507.00;;;6.60
18704;BMP180;9481;48.796;9.210;2023-01-19T05:09:05;95504.00;;;6.50
18704;BMP180;9481;48.796;9.210;2023-01-19T05:11:36;95520.00;;;6.50
18704;BMP180;9481;48.796;9.210;2023-01-19T05:14:02;95522.00;;;6.50
18704;BMP180;9481;48.796;9.210;2023-01-19T05:16:27;95517.00;;;6.50
18704;BMP180;9481;48.796;9.210;2023-01-19T05:18:53;95509.00;;;6.50
18704;BMP180;9481;48.796;9.210;2023-01-19T05:21:18;95514.00;;;6.50
18704;BMP180;9481;48.796;9.210;2023-01-19T05:23:45;95512.00;;;6.50
18704;BMP180;9481;48.796;9.210;2023-01-19T05:26:11;95528.00;;;6.50
18704;BMP180;9481;48.796;9.210;2023-01-19T05:28:36;95531.00;;;6.50
18704;BMP180;9481;48.796;9.210;2023-01-19T05:31:03;95533.00;;;6.40
18704;BMP180;9481;48.796;9.210;2023-01-19T05:33:29;95537.00;;;6.50
18704;BMP180;9481;48.796;9.210;2023-01-19T05:35:54;95521.00;;;6.50
18704;BMP180;9481;48.796;9.210;2023-01-19T05:38:21;95532.00;;;6.50
18704;BMP180;9481;48.796;9.210;2023-01-19T05:40:47;95535.00;;;6.50
18704;BMP180;9481;48.796;9.210;2023-01-19T05:43:14;95523.00;;;6.50
18704;BMP180;9481;48.796;9.210;2023-01-19T05:45:40;95535.00;;;6.50
18704;BMP180;9481;48.796;9.210;2023-01-19T05:48:08;95536.00;;;6.50
18704;BMP180;9481;48.796;9.210;2023-01-19T05:50:34;95536.00;;;6.50
18704;BMP180;9481;48.796;9.210;2023-01-19T05:53:01;95528.00;;;6.50
18704;BMP180;9481;48.796;9.210;2023-01-19T05:55:28;95540.00;;;6.50
18704;BMP180;9481;48.796;9.210;2023-01-19T05:57:54;95546.00;;;6.50
18704;BMP180;9481;48.796;9.210;2023-01-19T06:00:20;95550.00;;;6.50
18704;BMP180;9481;48.796;9.210;2023-01-19T06:02:45;95552.00;;;6.50
18704;BMP180;9481;48.796;9.210;2023-01-19T06:05:14;95545.00;;;6.50
18704;BMP180;9481;48.796;9.210;2023-01-19T06:07:40;95555.00;;;6.50
18704;BMP180;9481;48.796;9.210;2023-01-19T06:10:07;95564.00;;;6.50
18704;BMP180;9481;48.796;9.210;2023-01-19T06:12:32;95557.00;;;6.50
18704;BMP180;9481;48.796;9.210;2023-01-19T06:14:58;95559.00;;;6.50
18704;BMP180;9481;48.796;9.210;2023-01-19T06:17:24;95573.00;;;6.50
18704;BMP180;9481;48.796;9.210;2023-01-19T06:19:49;95557.00;;;6.50
18704;BMP180;9481;48.796;9.210;2023-01-19T06:22:15;95566.00;;;6.50
18704;BMP180;9481;48.796;9.210;2023-01-19T06:24:41;95568.00;;;6.50
18704;BMP180;9481;48.796;9.210;2023-01-19T06:27:07;95574.00;;;6.50
18704;BMP180;9481;48.796;9.210;2023-01-19T06:29:32;95553.00;;;6.60
18704;BMP180;9481;48.796;9.210;2023-01-19T06:31:58;95565.00;;;6.60
18704;BMP180;9481;48.796;9.210;2023-01-19T06:34:24;95577.00;;;6.60
18704;BMP180;9481;48.796;9.210;2023-01-19T06:36:55;95577.00;;;6.60
18704;BMP180;9481;48.796;9.210;2023-01-19T06:39:21;95564.00;;;6.60
18704;BMP180;9481;48.796;9.210;2023-01-19T06:41:47;95575.00;;;6.60
18704;BMP180;9481;48.796;9.210;2023-01-19T06:44:13;95574.00;;;6.60
18704;BMP180;9481;48.796;9.210;2023-01-19T06:46:39;95570.00;;;6.60
18704;BMP180;9481;48.796;9.210;2023-01-19T06:49:04;95570.00;;;6.60
18704;BMP180;9481;48.796;9.210;2023-01-19T06:51:30;95567.00;;;6.60
18704;BMP180;9481;48.796;9.210;2023-01-19T06:53:56;95587.00;;;6.60
18704;BMP180;9481;48.796;9.210;2023-01-19T06:56:22;95581.00;;;6.60
18704;BMP180;9481;48.796;9.210;2023-01-19T06:58:48;95582.00;;;6.60
18704;BMP180;9481;48.796;9.210;2023-01-19T07:01:15;95565.00;;;6.70
18704;BMP180;9481;48.796;9.210;2023-01-19T07:03:40;95578.00;;;6.70
18704;BMP180;9481;48.796;9.210;2023-01-19T07:06:06;95562.00;;;6.70
18704;BMP180;9481;48.796;9.210;2023-01-19T07:08:36;95578.00;;;6.70
18704;BMP180;9481;48.796;9.210;2023-01-19T07:11:06;95567.00;;;6.70
18704;BMP180;9481;48.796;9.210;2023-01-19T07:13:33;95582.00;;;6.70
18704;BMP180;9481;48.796;9.210;2023-01-19T07:16:07;95564.00;;;6.70
18704;BMP180;9481;48.796;9.210;2023-01-19T07:18:33;95580.00;;;6.70
18704;BMP180;9481;48.796;9.210;2023-01-19T07:20:59;95586.00;;;6.70
18704;BMP180;9481;48.796;9.210;2023-01-19T07:23:25;95588.00;;;6.70
18704;BMP180;9481;48.796;9.210;2023-01-19T07:25:58;95601.00;;;6.70
18704;BMP180;9481;48.796;9.210;2023-01-19T07:28:27;95595.00;;;6.70
18704;BMP180;9481;48.796;9.210;2023-01-19T07:30:54;95596.00;;;6.60
18704;BMP180;9481;48.796;9.210;2023-01-19T07:33:20;95597.00;;;6.70
18704;BMP180;9481;48.796;9.210;2023-01-19T07:35:50;95597.00;;;6.70
18704;BMP180;9481;48.796;9.210;2023-01-19T07:38:17;95593.00;;;6.70
18704;BMP180;9481;48.796;9.210;2023-01-19T07:40:43;95599.00;;;6.80
18704;BMP180;9481;48.796;9.210;2023-01-19T07:43:09;95597.00;;;6.80
18704;BMP180;9481;48.796;9.210;2023-01-19T07:45:35;95591.00;;;6.80
18704;BMP180;9481;48.796;9.210;2023-01-19T07:48:01;95601.00;;;6.80
18704;BMP180;9481;48.796;9.210;2023-01-19T07:50:26;95603.00;;;6.80
18704;BMP180;9481;48.796;9.210;2023-01-19T07:52:54;95604.00;;;6.80
18704;BMP180;9481;48.796;9.210;2023-01-19T07:55:21;95593.00;;;6.80
18704;BMP180;9481;48.796;9.210;2023-01-19T07:57:51;95610.00;;;6.80
18704;BMP180;9481;48.796;9.210;2023-01-19T08:00:18;95618.00;;;6.80
18704;BMP180;9481;48.796;9.210;2023-01-19T08:02:47;95616.00;;;6.80
18704;BMP180;9481;48.796;9.210;2023-01-19T08:05:16;95615.00;;;6.80
18704;BMP180;9481;48.796;9.210;2023-01-19T08:07:42;95619.00;;;6.80
18704;BMP180;9481;48.796;9.210;2023-01-19T08:10:11;95605.00;;;6.80
18704;BMP180;9481;48.796;9.210;2023-01-19T08:12:37;95605.00;;;6.80
18704;BMP180;9481;48.796;9.210;2023-01-19T08:15:04;95621.00;;;6.80
18704;BMP180;9481;48.796;9.210;2023-01-19T08:17:29;95612.00;;;6.90
18704;BMP180;9481;48.796;9.210;2023-01-19T08:19:55;95625.00;;;6.90
18704;BMP180;9481;48.796;9.210;2023-01-19T08:22:21;95616.00;;;6.90
18704;BMP180;9481;48.796;9.210;2023-01-19T08:24:47;95615.00;;;6.90
18704;BMP180;9481;48.796;9.210;2023-01-19T08:27:13;95630.00;;;6.90
18704;BMP180;9481;48.796;9.210;2023-01-19T08:29:38;95632.00;;;6.90
18704;BMP180;9481;48.796;9.210;2023-01-19T08:32:04;95618.00;;;7.00
18704;BMP180;9481;48.796;9.210;2023-01-19T08:34:31;95626.00;;;7.00
18704;BMP180;9481;48.796;9.210;2023-01-19T08:36:57;95620.00;;;7.00
18704;BMP180;9481;48.796;9.210;2023-01-19T08:39:24;95620.00;;;7.00
18704;BMP180;9481;48.796;9.210;2023-01-19T08:41:50;95635.00;;;6.90
18704;BMP180;9481;48.796;9.210;2023-01-19T08:44:17;95637.00;;;6.90
18704;BMP180;9481;48.796;9.210;2023-01-19T08:46:43;95649.00;;;6.90
18704;BMP180;9481;48.796;9.210;2023-01-19T08:49:09;95641.00;;;6.90
18704;BMP180;9481;48.796;9.210;2023-01-19T08:51:35;95655.00;;;6.90
18704;BMP180;9481;48.796;9.210;2023-01-19T08:54:01;95638.00;;;6.90
18704;BMP180;9481;48.796;9.210;2023-01-19T08:56:26;95653.00;;;6.80
18704;BMP180;9481;48.796;9.210;2023-01-19T08:58:52;95636.00;;;6.80
18704;BMP180;9481;48.796;9.210;2023-01-19T09:01:18;95650.00;;;6.90
18704;BMP180;9481;48.796;9.210;2023-01-19T09:03:45;95646.00;;;6.90
18704;BMP180;9481;48.796;9.210;2023-01-19T09:06:14;95655.00;;;6.90
18704;BMP180;9481;48.796;9.210;2023-01-19T09:08:44;95643.00;;;6.90
18704;BMP180;9481;48.796;9.210;2023-01-19T09:11:13;95643.00;;;7.00
18704;BMP180;9481;48.796;9.210;2023-01-19T09:13:40;95649.00;;;7.10
18704;BMP180;9481;48.796;9.210;2023-01-19T09:16:07;95656.00;;;7.20
18704;BMP180;9481;48.796;9.210;2023-01-19T09:18:34;95639.00;;;7.20
18704;BMP180;9481;48.796;9.210;2023-01-19T09:21:01;95644.00;;;7.20
18704;BMP180;9481;48.796;9.210;2023-01-19T09:23:28;95643.00;;;7.20
18704;BMP180;9481;48.796;9.210;2023-01-19T09:26:00;95656.00;;;7.20
18704;BMP180;9481;48.796;9.210;2023-01-19T09:28:27;95649.00;;;7.20
18704;BMP180;9481;48.796;9.210;2023-01-19T09:30:54;95662.00;;;7.30
18704;BMP180;9481;48.796;9.210;2023-01-19T09:33:20;95654.00;;;7.30
18704;BMP180;9481;48.796;9.210;2023-01-19T09:35:48;95660.00;;;7.30
18704;BMP180;9481;48.796;9.210;2023-01-19T09:38:15;95653.00;;;7.40
18704;BMP180;9481;48.796;9.210;2023-01-19T09:40:52;95662.00;;;7.40
18704;BMP180;9481;48.796;9.210;2023-01-19T09:43:39;95661.00;;;7.50
18704;BMP180;9481;48.796;9.210;2023-01-19T09:46:19;95664.00;;;7.50
18704;BMP180;9481;48.796;9.210;2023-01-19T09:51:25;95650.00;;;7.50
18704;BMP180;9481;48.796;9.210;2023-01-19T09:54:15;95651.00;;;7.50
18704;BMP180;9481;48.796;9.210;2023-01-19T09:56:47;95658.00;;;7.60
18704;BMP180;9481;48.796;9.210;2023-01-19T09:59:37;95662.00;;;7.60
18704;BMP180;9481;48.796;9.210;2023-01-19T10:05:50;95661.00;;;7.70
18704;BMP180;9481;48.796;9.210;2023-01-19T10:10:46;95662.00;;;7.90
18704;BMP180;9481;48.796;9.210;2023-01-19T10:13:47;95660.00;;;7.90
18704;BMP180;9481;48.796;9.210;2023-01-19T10:16:52;95664.00;;;7.90
18704;BMP180;9481;48.796;9.210;2023-01-19T10:19:29;95674.00;;;8.00
18704;BMP180;9481;48.796;9.210;2023-01-19T10:22:03;95672.00;;;8.00
18704;BMP180;9481;48.796;9.210;2023-01-19T10:24:40;95668.00;;;8.00
18704;BMP180;9481;48.796;9.210;2023-01-19T10:27:25;95669.00;;;7.90
18704;BMP180;9481;48.796;9.210;2023-01-19T10:29:51;95659.00;;;8.00
18704;BMP180;9481;48.796;9.210;2023-01-19T10:32:37;95654.00;;;8.00
18704;BMP180;9481;48.796;9.210;2023-01-19T10:35:16;95661.00;;;8.00
18704;BMP180;9481;48.796;9.210;2023-01-19T10:37:46;95663.00;;;8.00
18704;BMP180;9481;48.796;9.210;2023-01-19T10:40:26;95661.00;;;8.10
18704;BMP180;9481;48.796;9.210;2023-01-19T10:42:55;95649.00;;;8.10
18704;BMP180;9481;48.796;9.210;2023-01-19T10:45:25;95660.00;;;8.10
18704;BMP180;9481;48.796;9.210;2023-01-19T10:47:53;95638.00;;;8.20
18704;BMP180;9481;48.796;9.210;2023-01-19T10:50:32;95650.00;;;8.20
18704;BMP180;9481;48.796;9.210;2023-01-19T10:53:01;95650.00;;;8.20
18704;BMP180;9481;48.796;9.210;2023-01-19T10:55:36;95648.00;;;8.20
18704;BMP180;9481;48.796;9.210;2023-01-19T10:58:04;95654.00;;;8.20
18704;BMP180;9481;48.796;9.210;2023-01-19T11:00:35;95639.00;;;8.20
18704;BMP180;9481;48.796;9.210;2023-01-19T11:03:04;95651.00;;;8.20
18704;BMP180;9481;48.796;9.210;2023-01-19T11:05:32;95646.00;;;8.20
18704;BMP180;9481;48.796;9.210;2023-01-19T11:07:58;95651.00;;;8.20
18704;BMP180;9481;48.796;9.210;2023-01-19T11:10:27;95652.00;;;8.30
18704;BMP180;9481;48.796;9.210;2023-01-19T11:13:05;95653.00;;;8.30
18704;BMP180;9481;48.796;9.210;2023-01-19T11:16:18;95656.00;;;8.20
18704;BMP180;9481;48.796;9.210;2023-01-19T11:18:51;95647.00;;;8.20
18704;BMP180;9481;48.796;9.210;2023-01-19T11:21:26;95658.00;;;8.20
18704;BMP180;9481;48.796;9.210;2023-01-19T11:23:57;95659.00;;;8.20
18704;BMP180;9481;48.796;9.210;2023-01-19T11:26:33;95656.00;;;8.20
18704;BMP180;9481;48.796;9.210;2023-01-19T11:29:10;95652.00;;;8.30
18704;BMP180;9481;48.796;9.210;2023-01-19T11:31:39;95654.00;;;8.30
18704;BMP180;9481;48.796;9.210;2023-01-19T11:39:49;95653.00;;;8.50
18704;BMP180;9481;48.796;9.210;2023-01-19T11:42:16;95641.00;;;8.60
18704;BMP180;9481;48.796;9.210;2023-01-19T11:44:53;95658.00;;;8.60
18704;BMP180;9481;48.796;9.210;2023-01-19T11:47:43;95654.00;;;8.60
18704;BMP180;9481;48.796;9.210;2023-01-19T11:50:23;95643.00;;;8.70
18704;BMP180;9481;48.796;9.210;2023-01-19T11:53:03;95640.00;;;8.70
18704;BMP180;9481;48.796;9.210;2023-01-19T11:55:38;95635.00;;;8.70
18704;BMP180;9481;48.796;9.210;2023-01-19T11:58:07;95635.00;;;8.70
18704;BMP180;9481;48.796;9.210;2023-01-19T12:00:56;95620.00;;;8.80
18704;BMP180;9481;48.796;9.210;2023-01-19T12:03:34;95624.00;;;8.90
18704;BMP180;9481;48.796;9.210;2023-01-19T12:06:18;95626.00;;;9.00
18704;BMP180;9481;48.796;9.210;2023-01-19T12:08:53;95626.00;;;9.00
18704;BMP180;9481;48.796;9.210;2023-01-19T12:11:46;95630.00;;;9.10
18704;BMP180;9481;48.796;9.210;2023-01-19T12:14:27;95635.00;;;9.10
18704;BMP180;9481;48.796;9.210;2023-01-19T12:16:59;95627.00;;;9.10
18704;BMP180;9481;48.796;9.210;2023-01-19T12:19:42;95634.00;;;9.10
18704;BMP180;9481;48.796;9.210;2023-01-19T12:22:16;95631.00;;;9.00
18704;BMP180;9481;48.796;9.210;2023-01-19T12:24:56;95625.00;;;9.00
18704;BMP180;9481;48.796;9.210;2023-01-19T12:27:45;95620.00;;;9.00
18704;BMP180;9481;48.796;9.210;2023-01-19T12:30:25;95624.00;;;9.00
18704;BMP180;9481;48.796;9.210;2023-01-19T12:33:41;95624.00;;;8.90
18704;BMP180;9481;48.796;9.210;2023-01-19T12:39:17;95625.00;;;8.80
18704;BMP180;9481;48.796;9.210;2023-01-19T12:41:44;95620.00;;;8.80
18704;BMP180;9481;48.796;9.210;2023-01-19T12:49:43;95635.00;;;8.70
18704;BMP180;9481;48.796;9.210;2023-01-19T12:52:26;95632.00;;;8.70
18704;BMP180;9481;48.796;9.210;2023-01-19T12:58:06;95624.00;;;8.70
18704;BMP180;9481;48.796;9.210;2023-01-19T13:00:40;95633.00;;;8.70
18704;BMP180;9481;48.796;9.210;2023-01-19T13:18:59;95630.00;;;8.80
18704;BMP180;9481;48.796;9.210;2023-01-19T13:24:04;95633.00;;;8.80
18704;BMP180;9481;48.796;9.210;2023-01-19T13:26:34;95630.00;;;8.80
18704;BMP180;9481;48.796;9.210;2023-01-19T13:29:27;95639.00;;;8.70
18704;BMP180;9481;48.796;9.210;2023-01-19T13:31:56;95641.00;;;8.80
18704;BMP180;9481;48.796;9.210;2023-01-19T13:34:48;95635.00;;;8.80
18704;BMP180;9481;48.796;9.210;2023-01-19T13:37:21;95626.00;;;8.80
18704;BMP180;9481;48.796;9.210;2023-01-19T13:39:51;95630.00;;;8.80
18704;BMP180;9481;48.796;9.210;2023-01-19T13:42:29;95649.00;;;8.80
18704;BMP180;9481;48.796;9.210;2023-01-19T13:45:01;95645.00;;;8.80
18704;BMP180;9481;48.796;9.210;2023-01-19T13:47:48;95639.00;;;8.80
18704;BMP180;9481;48.796;9.210;2023-01-19T13:50:25;95645.00;;;8.80
18704;BMP180;9481;48.796;9.210;2023-01-19T13:52:52;95651.00;;;8.80
18704;BMP180;9481;48.796;9.210;2023-01-19T13:55:21;95636.00;;;8.80
18704;BMP180;9481;48.796;9.210;2023-01-19T13:57:50;95651.00;;;8.90
18704;BMP180;9481;48.796;9.210;2023-01-19T14:00:28;95648.00;;;8.90
18704;BMP180;9481;48.796;9.210;2023-01-19T14:02:56;95665.00;;;9.00
18704;BMP180;9481;48.796;9.210;2023-01-19T14:05:34;95653.00;;;9.00
18704;BMP180;9481;48.796;9.210;2023-01-19T14:10:41;95662.00;;;9.00
18704;BMP180;9481;48.796;9.210;2023-01-19T14:13:25;95675.00;;;9.10
18704;BMP180;9481;48.796;9.210;2023-01-19T14:15:54;95658.00;;;9.10
18704;BMP180;9481;48.796;9.210;2023-01-19T14:18:29;95660.00;;;9.10
18704;BMP180;9481;48.796;9.210;2023-01-19T14:21:12;95664.00;;;9.10
18704;BMP180;9481;48.796;9.210;2023-01-19T14:29:31;95660.00;;;9.20
18704;BMP180;9481;48.796;9.210;2023-01-19T14:37:01;95662.00;;;9.20
18704;BMP180;9481;48.796;9.210;2023-01-19T14:39:32;95665.00;;;9.20
18704;BMP180;9481;48.796;9.210;2023-01-19T14:42:02;95651.00;;;9.20
18704;BMP180;9481;48.796;9.210;2023-01-19T14:44:34;95656.00;;;9.20
18704;BMP180;9481;48.796;9.210;2023-01-19T14:47:04;95653.00;;;9.20
18704;BMP180;9481;48.796;9.210;2023-01-19T14:49:40;95661.00;;;9.20
18704;BMP180;9481;48.796;9.210;2023-01-19T14:52:22;95659.00;;;9.20
18704;BMP180;9481;48.796;9.210;2023-01-19T14:54:49;95646.00;;;9.20
18704;BMP180;9481;48.796;9.210;2023-01-19T14:57:15;95655.00;;;9.20
18704;BMP180;9481;48.796;9.210;2023-01-19T14:59:41;95649.00;;;9.20
18704;BMP180;9481;48.796;9.210;2023-01-19T15:02:12;95670.00;;;9.20
18704;BMP180;9481;48.796;9.210;2023-01-19T15:04:38;95651.00;;;9.20
18704;BMP180;9481;48.796;9.210;2023-01-19T15:07:05;95664.00;;;9.20
18704;BMP180;9481;48.796;9.210;2023-01-19T15:09:31;95662.00;;;9.20
18704;BMP180;9481;48.796;9.210;2023-01-19T15:11:57;95671.00;;;9.30
18704;BMP180;9481;48.796;9.210;2023-01-19T15:14:23;95675.00;;;9.30
18704;BMP180;9481;48.796;9.210;2023-01-19T15:16:50;95657.00;;;9.30
18704;BMP180;9481;48.796;9.210;2023-01-19T15:19:16;95666.00;;;9.20
18704;BMP180;9481;48.796;9.210;2023-01-19T15:21:43;95657.00;;;9.20
18704;BMP180;9481;48.796;9.210;2023-01-19T15:24:12;95668.00;;;9.20
18704;BMP180;9481;48.796;9.210;2023-01-19T15:26:41;95660.00;;;9.20
18704;BMP180;9481;48.796;9.210;2023-01-19T15:29:24;95663.00;;;9.20
18704;BMP180;9481;48.796;9.210;2023-01-19T15:31:51;95655.00;;;9.20
18704;BMP180;9481;48.796;9.210;2023-01-19T15:34:17;95646.00;;;9.20
18704;BMP180;9481;48.796;9.210;2023-01-19T15:36:43;95652.00;;;9.20
18704;BMP180;9481;48.796;9.210;2023-01-19T15:39:09;95650.00;;;9.20
18704;BMP180;9481;48.796;9.210;2023-01-19T15:41:37;95661.00;;;9.20
18704;BMP180;9481;48.796;9.210;2023-01-19T15:44:04;95640.00;;;9.20
18704;BMP180;9481;48.796;9.210;2023-01-19T15:46:31;95646.00;;;9.20
18704;BMP180;9481;48.796;9.210;2023-01-19T15:48:57;95659.00;;;9.20
18704;BMP180;9481;48.796;9.210;2023-01-19T15:51:24;95654.00;;;9.30
18704;BMP180;9481;48.796;9.210;2023-01-19T15:53:52;95642.00;;;9.30